This is the latest recevied weather packets stored in our database for station/object N9BLE. If no packets are shown the sender has not sent any weather packets the latest 1 day(s).
| Time | Temp. | Humidity | Pressure | Rain* | Wind** | Luminosity | Snow |
|---|---|---|---|---|---|---|---|
| 1778011176 | 12.78° C | 33% | 1013.3 hPa | 0 mm | 0.45 m/s, 198° | 178 W/m² | - |
| 1778010874 | 12.78° C | 34% | 1013.3 hPa | 0 mm | 0.45 m/s, 19° | 187 W/m² | - |
| 1778010571 | 12.78° C | 33% | 1013.4 hPa | 0 mm | 0.89 m/s, 312° | 203 W/m² | - |
| 1778010268 | 12.78° C | 34% | 1013.5 hPa | 0 mm | 0.45 m/s, 74° | 194 W/m² | - |
| 1778009968 | 13.33° C | 32% | 1013.3 hPa | 0 mm | 1.34 m/s, 222° | 225 W/m² | - |
| 1778009666 | 13.33° C | 32% | 1013.4 hPa | 0 mm | 1.34 m/s, 40° | 241 W/m² | - |
| 1778009364 | 12.78° C | 33% | 1013.2 hPa | 0 mm | 0.45 m/s, 11° | 232 W/m² | - |
| 1778009062 | 13.33° C | 34% | 1013.3 hPa | 0 mm | 0.89 m/s, 100° | 235 W/m² | - |
| 1778008759 | 12.78° C | 34% | 1013.3 hPa | 0 mm | 0.89 m/s, 157° | 248 W/m² | - |
| 1778008458 | 12.78° C | 29% | 1013.3 hPa | 0 mm | 0.45 m/s, 359° | 237 W/m² | - |
| 1778008154 | 13.33° C | 33% | 1013.4 hPa | 0 mm | 1.79 m/s, 267° | 253 W/m² | - |
| 1778007850 | 13.89° C | 35% | 1013.4 hPa | 0 mm | 0.45 m/s, 27° | 245 W/m² | - |
| 1778007545 | 13.89° C | 33% | 1013.5 hPa | 0 mm | 1.34 m/s, 218° | 313 W/m² | - |
| 1778007242 | 13.33° C | 35% | 1013.6 hPa | 0 mm | 0.89 m/s, 24° | 353 W/m² | - |
| 1778006938 | 12.78° C | 34% | 1013.4 hPa | 0 mm | 1.34 m/s, 226° | 283 W/m² | - |
| 1778006635 | 13.33° C | 33% | 1013.5 hPa | 0 mm | 0.45 m/s, 53° | 256 W/m² | - |
| 1778006332 | 13.33° C | 35% | 1013.4 hPa | 0 mm | 0.45 m/s, 94° | 261 W/m² | - |
| 1778006029 | 13.33° C | 33% | 1013.3 hPa | 0 mm | 1.34 m/s, 239° | 242 W/m² | - |
| 1778005726 | 13.33° C | 34% | 1013.6 hPa | 0 mm | 1.34 m/s, 29° | 250 W/m² | - |
| 1778005422 | 13.33° C | 35% | 1013.3 hPa | 0 mm | 1.34 m/s, 151° | 276 W/m² | - |
| 1778005119 | 13.33° C | 34% | 1013.4 hPa | 0 mm | 0.89 m/s, 7° | 280 W/m² | - |
| 1778004817 | 13.33° C | 34% | 1013.7 hPa | 0 mm | 0.45 m/s, 33° | 281 W/m² | - |
| 1778004513 | 12.78° C | 34% | 1013.3 hPa | 0 mm | 1.79 m/s, 176° | 295 W/m² | - |
| 1778004210 | 12.78° C | 32% | 1013.2 hPa | 0 mm | 0.89 m/s, 13° | 281 W/m² | - |
| 1778003906 | 13.33° C | 32% | 1013.5 hPa | 0 mm | 0.89 m/s, 35° | 314 W/m² | - |
* Rain latest hour (hover to see other rain measurements)
** Current wind speed in m/s (hover to see current wind gust speed)